Ernest, Pennsylvania
Current Conditions -  °F | °C
As of 7:35 PM on Sunday 25 Jan 2015 (Local Time) from KIDI Reporting Station
Haze Haze  
Wind Chill: 26°   Ceiling: 800
Heat Index: 32°   Visibility: 2mi
Dew Point: 30°   Wind: 6mph
Humidity: 93%   Direction: 80°E
Pressure: 29.84"   Gusts: NA
Location:  40.68°N, 79.16°W
Report Text: KIDI 260035Z AUTO 08005KT 2SM BR FEW003 BKN008 OVC017 M00/M01 A2984 RMK A01
Loading
Personal Weather Stations






























Interactive Weather Map New forecast layout! Learn more

10-Day Weather Forecast

Advertisements
Track Severe Weather on mobile